createdAt,value
2024-03-08T00:00:16.079Z,78.64
2024-03-08T00:02:45.182Z,78.63
2024-03-08T00:05:13.406Z,78.84
2024-03-08T00:07:41.515Z,78.64
2024-03-08T00:10:13.327Z,78.90
2024-03-08T00:12:46.152Z,78.76
2024-03-08T00:15:19.533Z,78.95
2024-03-08T00:17:48.743Z,78.71
2024-03-08T00:20:19.727Z,78.56
2024-03-08T00:22:47.703Z,78.59
2024-03-08T00:25:14.969Z,78.79
2024-03-08T00:27:45.704Z,78.89
2024-03-08T00:30:14.871Z,78.57
2024-03-08T00:32:42.643Z,78.51
2024-03-08T00:35:10.277Z,78.92
2024-03-08T00:37:37.587Z,78.80
2024-03-08T00:40:06.070Z,79.04
2024-03-08T00:42:34.920Z,78.93
2024-03-08T00:45:02.783Z,78.94
2024-03-08T00:47:30.406Z,78.90
2024-03-08T00:49:58.298Z,79.10
2024-03-08T00:52:25.928Z,79.29
2024-03-08T00:54:53.190Z,79.15
2024-03-08T00:57:20.635Z,79.35
2024-03-08T00:59:48.597Z,79.29
2024-03-08T01:02:16.498Z,79.30
2024-03-08T01:04:43.704Z,79.45
2024-03-08T01:07:11.038Z,79.44
2024-03-08T01:09:38.285Z,79.23
2024-03-08T01:12:06.674Z,79.58
2024-03-08T01:14:34.604Z,79.44
2024-03-08T01:17:01.995Z,79.51
2024-03-08T01:19:29.297Z,79.24
2024-03-08T01:21:58.905Z,79.19
2024-03-08T01:24:26.770Z,79.47
2024-03-08T01:26:54.030Z,79.29
2024-03-08T01:29:21.217Z,79.39
2024-03-08T01:31:48.431Z,79.43
2024-03-08T01:34:15.548Z,79.60
2024-03-08T01:36:42.841Z,79.48
2024-03-08T01:39:11.071Z,79.95
2024-03-08T01:41:38.518Z,79.61
2024-03-08T01:44:08.693Z,79.66
2024-03-08T01:46:36.961Z,79.80
2024-03-08T01:49:04.958Z,79.85
2024-03-08T01:51:32.740Z,80.17
2024-03-08T01:54:02.721Z,79.57
2024-03-08T01:56:33.348Z,79.97
2024-03-08T01:59:01.216Z,80.10
2024-03-08T02:04:23.468Z,79.96
2024-03-08T02:06:51.381Z,80.14
2024-03-08T02:09:18.795Z,80.29
2024-03-08T02:11:47.465Z,79.96
2024-03-08T02:14:15.670Z,80.19
2024-03-08T02:16:42.779Z,80.34
2024-03-08T02:19:11.234Z,80.12
2024-03-08T02:21:39.340Z,80.00
2024-03-08T02:24:07.812Z,80.10
2024-03-08T02:26:35.157Z,80.36
2024-03-08T02:29:03.446Z,80.27
2024-03-08T02:31:30.592Z,80.52
2024-03-08T02:33:57.666Z,80.33
2024-03-08T02:36:25.089Z,80.45
2024-03-08T02:38:52.236Z,80.40
2024-03-08T02:41:19.584Z,80.54
2024-03-08T02:43:46.951Z,80.76
2024-03-08T02:46:14.008Z,80.47
2024-03-08T02:48:41.388Z,80.60
2024-03-08T02:51:08.677Z,80.88
2024-03-08T02:53:36.735Z,80.93
2024-03-08T02:56:03.967Z,80.70
2024-03-08T02:58:31.185Z,80.91
2024-03-08T03:00:59.067Z,81.05
2024-03-08T03:03:26.263Z,81.11
2024-03-08T03:05:53.487Z,81.06
2024-03-08T03:08:20.905Z,81.19
2024-03-08T03:10:48.118Z,81.58
2024-03-08T03:13:18.075Z,81.40
2024-03-08T03:15:47.495Z,81.05
2024-03-08T03:18:14.945Z,81.00
2024-03-08T03:20:42.631Z,81.32
2024-03-08T03:23:10.653Z,80.78
2024-03-08T03:25:40.372Z,81.29
2024-03-08T03:28:09.594Z,81.18
2024-03-08T03:30:36.798Z,81.00
2024-03-08T03:33:09.077Z,81.12
2024-03-08T03:35:38.330Z,80.67
2024-03-08T03:38:10.542Z,80.86
2024-03-08T03:40:40.540Z,80.85
2024-03-08T03:43:09.105Z,81.00
2024-03-08T03:45:37.821Z,80.99
2024-03-08T03:48:12.861Z,80.57
2024-03-08T03:50:41.125Z,80.44
2024-03-08T03:53:10.230Z,80.73
2024-03-08T03:55:41.315Z,80.39
2024-03-08T03:58:11.794Z,80.22
2024-03-08T04:00:39.775Z,80.70
2024-03-08T04:03:07.696Z,80.52
2024-03-08T04:05:34.915Z,80.56
2024-03-08T04:08:02.333Z,80.52
2024-03-08T04:10:29.678Z,80.48
2024-03-08T04:12:58.243Z,80.17
2024-03-08T04:15:25.733Z,80.32
2024-03-08T04:17:52.964Z,80.52
2024-03-08T04:20:20.164Z,80.34
2024-03-08T04:22:50.878Z,80.03
2024-03-08T04:25:18.460Z,80.18
2024-03-08T04:27:45.987Z,80.22
2024-03-08T04:30:13.866Z,80.20
2024-03-08T04:32:43.052Z,80.09
2024-03-08T04:35:10.549Z,80.23
2024-03-08T04:37:38.002Z,80.07
2024-03-08T04:40:05.760Z,80.09
2024-03-08T04:42:36.581Z,80.54
2024-03-08T04:45:03.878Z,79.85
2024-03-08T04:47:31.413Z,80.06
2024-03-08T04:49:59.768Z,79.71
2024-03-08T04:52:27.531Z,79.94
2024-03-08T04:54:54.701Z,80.03
2024-03-08T04:57:22.040Z,79.98
2024-03-08T04:59:49.840Z,79.95
2024-03-08T05:02:18.700Z,79.81
2024-03-08T05:04:45.998Z,79.65
2024-03-08T05:07:13.251Z,79.23
2024-03-08T05:09:41.963Z,79.55
2024-03-08T05:12:09.447Z,79.38
2024-03-08T05:14:36.749Z,79.60
2024-03-08T05:17:04.027Z,79.52
2024-03-08T05:19:35.126Z,79.69
2024-03-08T05:22:02.789Z,79.64
2024-03-08T05:24:31.614Z,79.61
2024-03-08T05:27:00.936Z,79.58
2024-03-08T05:29:28.243Z,79.30
2024-03-08T05:31:55.560Z,79.44
2024-03-08T05:34:23.626Z,79.52
2024-03-08T05:36:52.135Z,79.21
2024-03-08T05:39:21.559Z,79.63
2024-03-08T05:41:49.559Z,79.35
2024-03-08T05:44:20.327Z,79.47
2024-03-08T05:46:50.231Z,79.52
2024-03-08T05:49:17.453Z,79.07
2024-03-08T05:51:44.880Z,79.33
2024-03-08T05:54:15.629Z,79.07
2024-03-08T05:56:45.516Z,78.64
2024-03-08T05:59:13.815Z,78.62
2024-03-08T06:01:43.215Z,78.16
2024-03-08T06:04:13.341Z,79.05
2024-03-08T06:06:41.572Z,78.59
2024-03-08T06:09:19.291Z,78.51
2024-03-08T06:11:46.738Z,78.73
2024-03-08T06:14:13.932Z,78.70
2024-03-08T06:16:41.042Z,79.03
2024-03-08T06:19:08.315Z,78.59
2024-03-08T06:21:35.460Z,78.94
2024-03-08T06:24:04.641Z,78.63
2024-03-08T06:26:32.916Z,77.93
2024-03-08T06:29:01.205Z,77.85
2024-03-08T06:31:28.429Z,77.40
2024-03-08T06:33:59.710Z,77.84
2024-03-08T06:36:27.024Z,77.81
2024-03-08T06:38:54.471Z,78.04
2024-03-08T06:41:21.811Z,78.08
2024-03-08T06:43:50.473Z,77.96
2024-03-08T06:46:17.902Z,78.24
2024-03-08T06:48:47.284Z,77.63
2024-03-08T06:51:16.124Z,76.25
2024-03-08T06:53:43.932Z,76.61
2024-03-08T06:56:11.185Z,76.37
2024-03-08T06:58:38.811Z,77.35
2024-03-08T07:01:09.303Z,76.51
2024-03-08T07:03:37.104Z,77.72
2024-03-08T07:06:04.916Z,76.48
2024-03-08T07:08:34.276Z,76.43
2024-03-08T07:11:01.585Z,75.34
2024-03-08T07:13:31.049Z,74.05
2024-03-08T07:15:58.501Z,73.66
2024-03-08T07:18:25.750Z,73.94
2024-03-08T07:20:53.316Z,73.43
2024-03-08T07:23:38.811Z,73.97
2024-03-08T07:26:06.189Z,73.74
2024-03-08T07:28:33.343Z,74.36
2024-03-08T07:31:18.943Z,74.96
2024-03-08T07:33:46.538Z,75.07
2024-03-08T07:36:13.911Z,74.15
2024-03-08T07:38:41.151Z,73.80
2024-03-08T07:41:08.377Z,74.18
2024-03-08T07:43:35.683Z,74.72
2024-03-08T07:46:02.717Z,74.22
2024-03-08T07:48:29.974Z,73.76
2024-03-08T07:50:57.426Z,73.93
2024-03-08T07:53:28.146Z,73.35
2024-03-08T07:55:55.633Z,73.92
2024-03-08T07:58:23.061Z,72.65
2024-03-08T08:00:50.434Z,72.99
2024-03-08T08:03:19.563Z,72.56
2024-03-08T08:05:47.434Z,72.50
2024-03-08T08:08:14.714Z,72.72
2024-03-08T08:10:41.909Z,73.50
2024-03-08T08:13:09.294Z,74.03
2024-03-08T08:15:36.453Z,73.94
2024-03-08T08:18:07.583Z,73.96
2024-03-08T08:20:35.311Z,73.63
2024-03-08T08:23:02.837Z,72.13
2024-03-08T08:25:30.745Z,71.02
2024-03-08T08:27:58.178Z,72.67
2024-03-08T08:30:25.486Z,71.94
2024-03-08T08:32:52.688Z,72.56
2024-03-08T08:35:21.323Z,71.37
2024-03-08T08:37:48.670Z,71.72
2024-03-08T08:40:16.822Z,72.30
2024-03-08T08:42:44.598Z,72.20
2024-03-08T08:45:16.780Z,69.92
2024-03-08T08:47:46.827Z,71.57
2024-03-08T08:50:14.814Z,72.75
2024-03-08T08:52:45.214Z,69.53
2024-03-08T08:55:16.390Z,67.61
2024-03-08T08:57:45.775Z,70.43
2024-03-08T09:00:16.743Z,71.60
2024-03-08T09:02:44.731Z,70.01
2024-03-08T09:05:13.220Z,71.33
2024-03-08T09:07:40.966Z,72.24
2024-03-08T09:12:41.279Z,68.52
2024-03-08T09:15:14.760Z,68.72
2024-03-08T09:17:43.975Z,64.33
2024-03-08T09:20:12.271Z,63.03
2024-03-08T09:22:39.633Z,62.21
2024-03-08T09:25:08.921Z,62.00
2024-03-08T09:27:39.409Z,64.06
2024-03-08T09:30:08.663Z,64.22
2024-03-08T09:32:36.609Z,62.25
2024-03-08T09:35:04.371Z,64.01
2024-03-08T09:37:32.349Z,62.44
2024-03-08T09:40:00.751Z,58.70
2024-03-08T09:42:28.474Z,59.58
2024-03-08T09:44:55.694Z,61.68
2024-03-08T09:47:26.532Z,60.40
2024-03-08T09:49:54.724Z,59.96
2024-03-08T09:52:22.307Z,58.78
2024-03-08T09:54:51.087Z,60.18
2024-03-08T09:57:21.191Z,58.34
2024-03-08T09:59:49.668Z,60.93
2024-03-08T10:02:17.676Z,61.46
2024-03-08T10:04:48.008Z,61.85
2024-03-08T10:07:15.755Z,62.12
2024-03-08T10:09:48.807Z,59.17
2024-03-08T10:12:17.473Z,56.82
2024-03-08T10:14:45.358Z,57.25
2024-03-08T10:17:12.374Z,58.11
2024-03-08T10:19:40.533Z,56.08
2024-03-08T10:22:08.628Z,55.75
2024-03-08T10:24:38.146Z,59.99
2024-03-08T10:27:06.934Z,57.90
2024-03-08T10:29:34.667Z,57.72
2024-03-08T10:32:03.634Z,57.35
2024-03-08T10:34:31.390Z,53.37
2024-03-08T10:37:05.938Z,56.15
2024-03-08T10:39:37.711Z,57.45
2024-03-08T10:42:06.571Z,49.47
2024-03-08T10:44:45.421Z,52.57
2024-03-08T10:47:31.768Z,51.83
2024-03-08T10:50:07.874Z,55.24
2024-03-08T10:52:36.424Z,56.16
2024-03-08T10:55:04.156Z,54.55
2024-03-08T10:57:32.698Z,56.07
2024-03-08T11:00:00.481Z,56.71
2024-03-08T11:02:28.909Z,52.38
2024-03-08T11:04:58.331Z,52.70
2024-03-08T11:07:29.244Z,51.82
2024-03-08T11:09:57.962Z,54.08
2024-03-08T11:12:38.864Z,54.95
2024-03-08T11:15:15.499Z,51.52
2024-03-08T11:17:52.968Z,49.84
2024-03-08T11:20:24.134Z,51.14
2024-03-08T11:22:53.693Z,55.07
2024-03-08T11:25:43.291Z,53.98
2024-03-08T11:28:20.642Z,50.80
2024-03-08T11:31:03.098Z,52.22
2024-03-08T11:33:31.806Z,51.17
2024-03-08T11:36:18.304Z,51.58
2024-03-08T11:38:45.938Z,51.29
2024-03-08T11:41:19.101Z,52.31
2024-03-08T11:43:51.184Z,53.24
2024-03-08T11:46:19.538Z,52.16
2024-03-08T11:48:49.555Z,49.85
2024-03-08T11:51:19.618Z,49.79
2024-03-08T11:53:48.494Z,48.70
2024-03-08T11:56:17.147Z,48.53
2024-03-08T11:58:58.988Z,52.13
2024-03-08T12:01:26.684Z,50.27
2024-03-08T12:04:01.039Z,51.18
2024-03-08T12:06:38.153Z,52.32
2024-03-08T12:09:05.374Z,50.67
2024-03-08T12:11:33.966Z,52.26
2024-03-08T12:14:02.870Z,50.61
2024-03-08T12:16:30.637Z,50.56
2024-03-08T12:18:57.921Z,51.12
2024-03-08T12:21:27.517Z,48.04
2024-03-08T12:24:12.710Z,50.27
2024-03-08T12:26:41.602Z,51.41
2024-03-08T12:29:29.401Z,47.93
2024-03-08T12:32:00.134Z,48.00
2024-03-08T12:34:28.773Z,50.22
2024-03-08T12:36:56.663Z,50.83
2024-03-08T12:39:28.809Z,48.27
2024-03-08T12:41:58.766Z,48.56
2024-03-08T12:44:26.637Z,49.08
2024-03-08T12:46:55.532Z,50.68
2024-03-08T12:49:24.080Z,51.15
2024-03-08T12:51:51.567Z,50.85
2024-03-08T12:54:18.644Z,51.47
2024-03-08T12:56:45.735Z,51.08
2024-03-08T12:59:13.713Z,51.59
2024-03-08T13:01:41.785Z,50.77
2024-03-08T13:04:12.759Z,51.26
2024-03-08T13:06:40.222Z,52.49
2024-03-08T13:09:07.261Z,53.04
2024-03-08T13:11:38.266Z,52.83
2024-03-08T13:14:09.196Z,52.87
2024-03-08T13:16:36.629Z,53.44
2024-03-08T13:19:03.985Z,52.74
2024-03-08T13:21:31.796Z,52.83
2024-03-08T13:24:01.808Z,52.35
2024-03-08T13:26:34.587Z,53.03
2024-03-08T13:29:02.058Z,53.33
2024-03-08T13:31:29.784Z,53.23
2024-03-08T13:33:59.996Z,53.62
2024-03-08T13:36:30.867Z,54.13
2024-03-08T13:39:00.855Z,54.36
2024-03-08T13:41:30.287Z,54.35
2024-03-08T13:43:58.952Z,54.08
2024-03-08T13:46:26.256Z,54.08
2024-03-08T13:48:56.331Z,55.17
2024-03-08T13:51:24.128Z,55.25
2024-03-08T13:53:51.237Z,55.13
2024-03-08T13:56:18.717Z,53.78
2024-03-08T13:58:46.712Z,53.87
2024-03-08T14:01:14.118Z,53.14
2024-03-08T14:03:44.009Z,53.93
2024-03-08T14:08:52.948Z,53.88
2024-03-08T14:11:20.819Z,53.96
2024-03-08T14:13:49.128Z,54.48
2024-03-08T14:16:19.440Z,53.88
2024-03-08T14:18:46.586Z,53.09
2024-03-08T14:21:13.789Z,54.12
2024-03-08T14:23:44.450Z,54.64
2024-03-08T14:26:12.766Z,54.24
2024-03-08T14:28:40.651Z,54.74
2024-03-08T14:31:12.685Z,55.88
2024-03-08T14:33:39.887Z,55.92
2024-03-08T14:36:07.538Z,55.21
2024-03-08T14:38:36.471Z,55.68
2024-03-08T14:41:05.908Z,55.84
2024-03-08T14:43:33.686Z,55.62
2024-03-08T14:46:01.059Z,56.17
2024-03-08T14:48:28.693Z,56.81
2024-03-08T14:50:55.919Z,56.86
2024-03-08T14:53:23.166Z,56.72
2024-03-08T14:55:50.469Z,57.09
2024-03-08T14:58:17.794Z,57.04
2024-03-08T15:00:45.326Z,56.32
2024-03-08T15:03:18.336Z,56.49
2024-03-08T15:05:50.165Z,56.85
2024-03-08T15:08:21.659Z,57.42
2024-03-08T15:10:55.984Z,57.76
2024-03-08T15:13:24.734Z,57.88
2024-03-08T15:15:59.166Z,58.08
2024-03-08T15:18:29.680Z,58.02
2024-03-08T15:20:56.908Z,57.53
2024-03-08T15:23:24.101Z,57.97
2024-03-08T15:25:51.374Z,58.06
2024-03-08T15:28:21.934Z,58.24
2024-03-08T15:30:55.626Z,58.22
2024-03-08T15:33:28.803Z,58.72
2024-03-08T15:36:09.819Z,59.07
2024-03-08T15:38:40.094Z,59.36
2024-03-08T15:41:11.845Z,59.42
2024-03-08T15:43:39.106Z,59.72
2024-03-08T15:46:06.326Z,59.85
2024-03-08T15:48:34.337Z,60.15
2024-03-08T15:51:04.202Z,59.87
2024-03-08T15:53:35.147Z,60.26
2024-03-08T15:56:04.296Z,60.42
2024-03-08T15:58:31.906Z,60.77
2024-03-08T16:01:00.639Z,60.93
2024-03-08T16:03:32.419Z,61.10
2024-03-08T16:06:01.024Z,61.40
2024-03-08T16:08:28.691Z,61.37
2024-03-08T16:10:57.058Z,61.67
2024-03-08T16:13:26.244Z,61.80
2024-03-08T16:15:59.807Z,62.03
2024-03-08T16:18:27.148Z,62.06
2024-03-08T16:20:55.893Z,62.10
2024-03-08T16:23:24.422Z,62.30
2024-03-08T16:25:52.291Z,62.51
2024-03-08T16:28:21.598Z,62.46
2024-03-08T16:30:55.634Z,62.84
2024-03-08T16:33:23.897Z,62.79
2024-03-08T16:35:55.149Z,63.02
2024-03-08T16:38:22.383Z,63.10
2024-03-08T16:41:02.240Z,63.24
2024-03-08T16:43:29.675Z,63.39
2024-03-08T16:45:57.565Z,63.61
2024-03-08T16:48:25.642Z,63.72
2024-03-08T16:50:56.060Z,63.77
2024-03-08T16:53:23.370Z,63.75
2024-03-08T16:55:53.140Z,63.82
2024-03-08T16:58:22.970Z,63.89
2024-03-08T17:00:50.593Z,64.12
2024-03-08T17:03:18.255Z,64.35
2024-03-08T17:05:55.722Z,64.15
2024-03-08T17:08:24.114Z,64.51
2024-03-08T17:10:51.878Z,64.74
2024-03-08T17:13:20.121Z,64.86
2024-03-08T17:15:50.101Z,64.61
2024-03-08T17:18:17.744Z,64.90
2024-03-08T17:20:45.854Z,65.15
2024-03-08T17:23:15.290Z,65.10
2024-03-08T17:25:44.024Z,65.14
2024-03-08T17:28:13.892Z,65.04
2024-03-08T17:30:42.611Z,65.27
2024-03-08T17:33:16.620Z,65.32
2024-03-08T17:35:46.297Z,65.05
2024-03-08T17:38:20.536Z,65.58
2024-03-08T17:40:49.928Z,65.56
2024-03-08T17:43:22.825Z,65.74
2024-03-08T17:45:50.862Z,66.12
2024-03-08T17:48:21.211Z,65.95
2024-03-08T17:50:55.670Z,66.00
2024-03-08T17:53:23.035Z,65.71
2024-03-08T17:55:52.556Z,65.96
2024-03-08T17:58:21.746Z,66.47
2024-03-08T18:00:53.243Z,66.20
2024-03-08T18:03:26.179Z,66.59
2024-03-08T18:05:53.256Z,66.58
2024-03-08T18:08:20.536Z,66.72
2024-03-08T18:10:50.753Z,66.50
2024-03-08T18:13:18.017Z,67.10
2024-03-08T18:15:49.893Z,67.15
2024-03-08T18:18:18.913Z,66.71
2024-03-08T18:20:49.402Z,67.41
2024-03-08T18:23:18.799Z,67.72
2024-03-08T18:25:46.630Z,67.32
2024-03-08T18:28:14.852Z,67.61
2024-03-08T18:30:45.025Z,67.80
2024-03-08T18:33:15.947Z,67.45
2024-03-08T18:35:45.683Z,67.98
2024-03-08T18:38:13.469Z,67.90
2024-03-08T18:40:46.802Z,68.30
2024-03-08T18:43:17.152Z,68.37
2024-03-08T18:45:44.238Z,68.37
2024-03-08T18:48:13.278Z,68.30
2024-03-08T18:50:41.213Z,68.83
2024-03-08T18:53:09.356Z,68.94
2024-03-08T18:55:36.763Z,68.63
2024-03-08T18:58:04.231Z,68.83
2024-03-08T19:00:31.954Z,69.05
2024-03-08T19:03:18.418Z,69.12
2024-03-08T19:05:47.599Z,69.37
2024-03-08T19:08:15.836Z,69.30
2024-03-08T19:10:44.574Z,69.30
2024-03-08T19:13:13.540Z,69.55
2024-03-08T19:15:41.047Z,69.70
2024-03-08T19:18:12.828Z,70.08
2024-03-08T19:20:41.115Z,69.90
2024-03-08T19:23:11.125Z,70.11
2024-03-08T19:25:43.800Z,69.79
2024-03-08T19:28:16.003Z,69.84
2024-03-08T19:30:43.682Z,69.91
2024-03-08T19:33:14.346Z,70.01
2024-03-08T19:35:42.990Z,70.11
2024-03-08T19:38:13.846Z,70.05
2024-03-08T19:40:46.000Z,70.21
2024-03-08T19:43:17.452Z,70.35
2024-03-08T19:45:45.145Z,70.30
2024-03-08T19:48:18.546Z,70.31
2024-03-08T19:50:47.487Z,70.83
2024-03-08T19:53:18.594Z,70.54
2024-03-08T19:55:54.940Z,70.41
2024-03-08T19:58:23.563Z,70.78
2024-03-08T20:00:51.438Z,70.68
2024-03-08T20:03:23.632Z,71.00
2024-03-08T20:05:55.743Z,70.50
2024-03-08T20:08:25.519Z,70.83
2024-03-08T20:10:54.425Z,70.78
2024-03-08T20:13:21.728Z,70.59
2024-03-08T20:15:54.775Z,70.66
2024-03-08T20:18:27.985Z,70.96
2024-03-08T20:20:56.954Z,70.97
2024-03-08T20:23:27.799Z,70.88
2024-03-08T20:25:55.139Z,71.12
2024-03-08T20:28:22.544Z,71.27
2024-03-08T20:30:49.846Z,71.24
2024-03-08T20:33:17.675Z,71.40
2024-03-08T20:35:51.654Z,71.34
2024-03-08T20:38:22.964Z,71.52
2024-03-08T20:40:52.203Z,71.31
2024-03-08T20:43:22.474Z,71.22
2024-03-08T20:45:51.100Z,71.46
2024-03-08T20:48:22.365Z,71.72
2024-03-08T20:50:50.969Z,71.52
2024-03-08T20:53:18.845Z,71.60
2024-03-08T20:55:46.230Z,71.89
2024-03-08T20:58:14.692Z,71.56
2024-03-08T21:00:42.249Z,71.74
2024-03-08T21:03:15.542Z,71.92
2024-03-08T21:05:51.630Z,71.81
2024-03-08T21:08:29.100Z,71.97
2024-03-08T21:10:58.326Z,71.85
2024-03-08T21:13:26.665Z,71.97
2024-03-08T21:15:57.253Z,72.05
2024-03-08T21:18:26.879Z,71.98
2024-03-08T21:20:54.652Z,71.95
2024-03-08T21:23:22.368Z,72.25
2024-03-08T21:25:50.804Z,72.47
2024-03-08T21:28:20.516Z,72.45
2024-03-08T21:30:47.825Z,72.41
2024-03-08T21:33:15.526Z,72.37
2024-03-08T21:35:42.899Z,72.35
2024-03-08T21:38:12.450Z,72.47
2024-03-08T21:43:13.365Z,72.56
2024-03-08T21:45:41.184Z,72.63
2024-03-08T21:48:10.418Z,72.61
2024-03-08T21:50:37.704Z,72.88
2024-03-08T21:53:14.290Z,72.71
2024-03-08T21:55:49.226Z,72.90
2024-03-08T21:58:16.417Z,73.31
2024-03-08T22:00:44.087Z,73.04
2024-03-08T22:03:12.576Z,73.15
2024-03-08T22:05:39.672Z,73.36
2024-03-08T22:08:07.597Z,73.50
2024-03-08T22:10:34.696Z,73.44
2024-03-08T22:13:01.837Z,73.65
2024-03-08T22:15:31.312Z,73.76
2024-03-08T22:17:58.602Z,73.98
2024-03-08T22:20:33.406Z,74.11
2024-03-08T22:23:03.974Z,74.20
2024-03-08T22:25:32.503Z,74.54
2024-03-08T22:28:00.468Z,74.35
2024-03-08T22:30:27.991Z,74.78
2024-03-08T22:32:56.071Z,75.04
2024-03-08T22:35:26.136Z,75.17
2024-03-08T22:37:55.544Z,75.59
2024-03-08T22:40:26.932Z,75.05
2024-03-08T22:42:54.753Z,75.27
2024-03-08T22:45:22.443Z,75.27
2024-03-08T22:47:49.985Z,75.28
2024-03-08T22:50:19.026Z,75.38
2024-03-08T22:52:47.756Z,75.38
2024-03-08T22:55:21.363Z,75.64
2024-03-08T22:57:50.610Z,75.50
2024-03-08T23:00:39.002Z,75.53
2024-03-08T23:03:14.325Z,75.77
2024-03-08T23:05:44.250Z,75.56
2024-03-08T23:08:13.023Z,75.84
2024-03-08T23:10:41.422Z,76.07
2024-03-08T23:13:11.213Z,76.23
2024-03-08T23:15:43.179Z,76.63
2024-03-08T23:18:13.802Z,76.76
2024-03-08T23:20:45.169Z,76.76
2024-03-08T23:23:14.464Z,77.06
2024-03-08T23:25:42.515Z,77.15
2024-03-08T23:28:13.773Z,76.86
2024-03-08T23:30:42.323Z,77.22
2024-03-08T23:33:11.038Z,77.01
2024-03-08T23:35:39.991Z,77.21
2024-03-08T23:38:09.526Z,77.13
2024-03-08T23:40:37.774Z,77.30
2024-03-08T23:43:07.064Z,77.59
2024-03-08T23:45:35.806Z,77.51
2024-03-08T23:48:03.352Z,77.36
2024-03-08T23:50:32.509Z,77.60
2024-03-08T23:53:02.336Z,77.61
2024-03-08T23:55:34.340Z,77.82
2024-03-08T23:58:10.811Z,77.70
